Latest Weather Observations for Brisbane Airport

IDQ60801

Issued at 3:32 pm EST Tuesday 26 September 2017 (issued every 30 minutes, with the page automatically refreshed every 10 minutes)

About weather observations | Map of weather stations | Latest weather observations for QLD | Other Formats
Station Details ID: 040842 Name: BRISBANE AERO Lat: -27.39 Lon: 153.13 Height: 4.51 m
Data from the previous 72 hours. | See also: Recent months at Brisbane Airport
Date/Time
EST
Temp
°C
App
Temp
°C
Dew
Point
°C
Rel
Hum
%
Delta-T
°C
Wind Press
QNH
hPa
Press
MSL
hPa
Rain since
9am
mm
Dir  Spd
km/h
Gust
km/h
Spd
kts
Gust
kts
26/03:00pm 23.4 19.9 15.4 60 4.8 ESE 28 41 15 22 1012.9 1012.9 0.0
26/02:30pm 24.2 21.0 15.4 58 5.3 ESE 26 39 14 21 1013.0 1013.0 0.0
26/02:00pm 24.0 21.2 15.3 58 5.2 ESE 24 43 13 23 1012.9 1012.9 0.0
26/01:30pm 24.3 21.9 15.3 57 5.4 ESE 22 35 12 19 1013.0 1013.0 0.0
26/01:00pm 24.7 22.0 16.6 60 5.0 ESE 26 39 14 21 1013.4 1013.4 0.0
26/12:30pm 24.6 23.1 17.7 65 4.3 ESE 22 37 12 20 1013.6 1013.6 0.0
26/12:00pm 23.8 23.0 17.2 66 4.1 E 17 26 9 14 1013.2 1013.2 0.0
26/11:30am 24.5 24.2 15.4 57 5.5 E 11 19 6 10 1014.0 1014.0 0.0
26/11:00am 24.0 23.2 15.1 57 5.3 E 13 19 7 10 1013.9 1013.9 0.0
26/10:30am 24.7 23.5 14.0 51 6.3 ENE 13 24 7 13 1014.2 1014.2 0.0
26/10:00am 26.4 25.6 14.1 46 7.3 NE 11 20 6 11 1014.3 1014.3 0.0
26/09:30am 26.5 26.6 14.5 47 7.2 E 7 17 4 9 1014.3 1014.3 0.0
26/09:00am 26.5 27.0 16.5 54 6.2 NE 9 13 5 7 1014.3 1014.3 0.0
26/08:30am 24.6 26.5 18.9 70 3.6 NNW 7 11 4 6 1014.0 1014.0 0.0
26/08:00am 23.1 23.8 19.7 81 2.2 N 15 19 8 10 1013.3 1013.3 0.0
26/07:30am 22.0 23.7 19.3 85 1.7 N 9 15 5 8 1013.5 1013.5 0.0
26/07:00am 20.6 22.1 19.0 90 1.0 NNE 9 15 5 8 1012.7 1012.7 0.0
26/06:30am 17.7 18.9 16.9 95 0.5 WNW 6 15 3 8 1013.0 1013.0 0.0
26/06:00am 18.5 21.3 18.0 97 0.3 CALM 0 0 0 0 1012.6 1012.6 0.0
26/05:30am 18.4 20.3 17.7 96 0.4 SW 4 7 2 4 1012.5 1012.5 0.0
26/05:00am 18.4 21.0 17.4 94 0.6 CALM 0 0 0 0 1012.2 1012.2 0.0
26/04:30am 20.1 22.5 18.8 92 0.8 NE 4 9 2 5 1011.7 1011.7 0.0
26/04:00am 20.5 22.1 19.2 92 0.8 E 9 13 5 7 1011.2 1011.2 0.0
26/03:30am 20.4 22.5 19.0 92 0.9 SE 6 11 3 6 1011.2 1011.2 0.0
26/03:00am 20.3 21.8 18.9 92 0.9 SSE 9 15 5 8 1011.1 1011.1 0.0
26/02:30am 19.9 22.5 18.5 92 0.9 SE 2 7 1 4 1010.6 1010.6 0.0
26/02:00am 20.6 22.0 18.7 89 1.2 SE 9 9 5 5 1010.6 1010.6 0.0
26/01:30am 20.3 22.0 18.5 89 1.1 SSE 7 11 4 6 1011.0 1011.0 0.0
26/01:00am 20.6 23.6 18.5 88 1.3 CALM 0 0 0 0 1011.1 1011.1 0.0
26/12:30am 21.3 22.8 18.8 86 1.6 NNW 9 11 5 6 1010.9 1010.9 0.0
26/12:00am 21.3 21.2 18.8 86 1.6 N 17 28 9 15 1010.6 1010.6 0.0
 
Date/Time
EST
Temp
°C
App
Temp
°C
Dew
Point
°C
Rel
Hum
%
Delta-T
°C
Wind Press
QNH
hPa
Press
MSL
hPa
Rain since
9am
mm
Dir  Spd
km/h
Gust
km/h
Spd
kts
Gust
kts
25/11:30pm 21.9 21.5 18.9 83 1.9 N 19 24 10 13 1010.6 1010.6 0.0
25/11:00pm 21.8 20.6 19.3 86 1.6 NNE 24 28 13 15 1010.0 1010.0 0.0
25/10:30pm 21.4 21.0 19.4 88 1.3 N 20 26 11 14 1010.5 1010.5 0.0
25/10:00pm 21.5 20.8 19.6 89 1.2 N 22 26 12 14 1010.8 1010.8 0.0
25/09:30pm 21.9 21.3 19.7 87 1.4 N 22 30 12 16 1010.8 1010.8 0.0
25/09:00pm 21.9 21.4 19.9 88 1.3 N 22 28 12 15 1010.8 1010.8 0.0
25/08:30pm 22.0 21.4 19.8 87 1.4 N 22 28 12 15 1010.8 1010.8 0.0
25/08:00pm 22.2 21.7 19.9 87 1.5 N 22 28 12 15 1010.9 1010.9 0.0
25/07:30pm 22.7 21.3 19.6 82 2.0 N 26 32 14 17 1010.4 1010.4 0.0
25/07:00pm 22.8 21.0 19.5 81 2.1 N 28 33 15 18 1010.1 1010.1 0.0
25/06:30pm 23.0 21.1 19.4 80 2.3 N 28 33 15 18 1009.9 1009.9 0.0
25/06:00pm 23.0 21.1 19.4 80 2.3 N 28 37 15 20 1009.6 1009.6 0.0
25/05:30pm 23.3 20.6 19.2 78 2.6 N 32 41 17 22 1009.4 1009.4 0.0
25/05:00pm 24.1 21.7 19.1 73 3.2 N 30 39 16 21 1009.1 1009.1 0.0
25/04:30pm 24.6 21.8 19.1 71 3.5 N 32 39 17 21 1008.9 1008.9 0.0
25/04:00pm 24.7 21.9 19.4 72 3.4 N 33 44 18 24 1008.7 1008.7 0.0
25/03:30pm 24.9 21.4 19.6 72 3.4 NNE 37 50 20 27 1008.8 1008.8 0.0
25/03:00pm 24.8 20.1 19.4 72 3.5 NNE 43 57 23 31 1008.7 1008.7 0.0
25/02:30pm 25.5 20.6 19.5 69 3.9 NNE 44 56 24 30 1009.0 1009.0 0.0
25/02:00pm 25.8 20.7 19.1 66 4.3 NNE 44 57 24 31 1009.3 1009.3 0.0
25/01:30pm 25.3 20.8 19.1 68 4.0 NNE 41 54 22 29 1009.7 1009.7 0.0
25/01:00pm 25.9 21.7 18.9 65 4.5 NNE 39 52 21 28 1010.2 1010.2 0.0
25/12:30pm 25.7 22.2 18.8 65 4.4 NNE 35 52 19 28 1010.9 1010.9 0.0
25/12:00pm 26.0 22.8 18.6 63 4.7 NNE 33 44 18 24 1011.5 1011.5 0.0
25/11:30am 25.9 22.1 18.0 61 5.0 NNE 35 44 19 24 1012.1 1012.1 0.0
25/11:00am 25.9 21.9 17.6 60 5.2 NNE 35 43 19 23 1012.7 1012.7 0.0
25/10:30am 25.5 21.8 17.5 61 5.0 NNE 33 41 18 22 1013.2 1013.2 0.0
25/10:00am 25.2 22.2 16.8 59 5.2 NNE 28 35 15 19 1013.6 1013.6 0.0
25/09:30am 23.8 22.9 17.7 68 3.8 N 19 26 10 14 1014.4 1014.4 0.0
25/09:00am 24.5 21.7 16.3 60 5.0 N 26 30 14 16 1014.3 1014.3 0.0
25/08:30am 23.2 20.4 16.3 65 4.2 N 26 35 14 19 1014.0 1014.0 0.0
25/08:00am 22.8 19.6 16.4 67 3.9 N 28 33 15 18 1013.5 1013.5 0.0
25/07:30am 22.2 19.2 16.8 71 3.3 N 28 35 15 19 1013.6 1013.6 0.0
25/07:00am 21.7 18.9 17.3 76 2.7 N 28 33 15 18 1013.1 1013.1 0.0
25/06:30am 20.8 18.7 17.2 80 2.2 N 24 30 13 16 1012.7 1012.7 0.0
25/06:00am 20.6 18.6 17.5 82 1.9 N 24 32 13 17 1012.2 1012.2 0.0
25/05:30am 20.3 17.7 17.7 85 1.6 N 28 33 15 18 1011.6 1011.6 0.0
25/05:00am 20.4 18.1 17.6 84 1.7 N 26 33 14 18 1011.4 1011.4 0.0
25/04:30am 20.5 18.5 17.4 82 1.9 N 24 33 13 18 1011.1 1011.1 0.0
25/04:00am 20.4 18.4 17.5 83 1.8 N 24 32 13 17 1010.9 1010.9 0.0
25/03:30am 20.5 18.2 17.6 83 1.8 N 26 32 14 17 1010.7 1010.7 0.0
25/03:00am 20.5 17.9 17.7 84 1.7 N 28 33 15 18 1010.4 1010.4 0.0
25/02:30am 20.6 18.9 18.0 85 1.6 N 24 32 13 17 1010.6 1010.6 0.0
25/02:00am 20.6 18.2 18.2 86 1.5 N 28 37 15 20 1010.6 1010.6 0.0
25/01:30am 20.8 17.6 18.1 84 1.7 N 32 37 17 20 1010.6 1010.6 0.0
25/01:00am 20.9 18.1 18.2 84 1.7 N 30 37 16 20 1010.6 1010.6 0.0
25/12:30am 21.0 17.7 18.3 84 1.7 N 33 41 18 22 1010.8 1010.8 0.0
25/12:00am 20.9 16.9 18.5 86 1.5 N 37 50 20 27 1010.6 1010.6 0.0
 
Date/Time
EST
Temp
°C
App
Temp
°C
Dew
Point
°C
Rel
Hum
%
Delta-T
°C
Wind Press
QNH
hPa
Press
MSL
hPa
Rain since
9am
mm
Dir  Spd
km/h
Gust
km/h
Spd
kts
Gust
kts
24/11:30pm 21.2 17.1 18.3 83 1.8 N 37 48 20 26 1010.6 1010.6 0.0
24/11:00pm 21.5 16.9 18.1 81 2.1 N 39 50 21 27 1010.8 1010.8 0.0
24/10:30pm 21.7 17.7 18.5 82 2.0 N 37 48 20 26 1010.9 1010.9 0.0
24/10:00pm 22.0 17.2 18.5 80 2.2 N 41 52 22 28 1010.8 1010.8 0.0
24/09:30pm 22.0 18.1 18.8 82 2.0 N 37 46 20 25 1010.7 1010.7 0.0
24/09:16pm 21.9 17.7 18.9 83 1.9 N 39 59 21 32 1010.7 1010.7 0.0
24/09:00pm 21.9 18.5 19.1 84 1.8 N 35 46 19 25 1010.8 1010.8 0.0
24/08:30pm 22.0 18.3 19.2 84 1.8 N 37 48 20 26 1010.7 1010.7 0.0
24/08:00pm 22.3 18.5 19.0 81 2.1 N 37 48 20 26 1010.4 1010.4 0.0
24/07:30pm 22.4 19.0 18.9 80 2.2 N 35 48 19 26 1009.9 1009.9 0.0
24/07:00pm 22.5 18.7 19.0 80 2.2 N 37 46 20 25 1009.3 1009.3 0.0
24/06:50pm 22.6 18.4 18.8 79 2.4 N 39 57 21 31 1009.1 1009.1 0.0
24/06:30pm 22.7 17.7 18.9 79 2.4 N 43 54 23 29 1008.9 1008.9 0.0
24/06:00pm 22.7 18.1 18.9 79 2.4 N 41 54 22 29 1008.6 1008.6 0.0
24/05:30pm 22.9 18.2 18.6 77 2.7 N 41 52 22 28 1008.3 1008.3 0.0
24/05:00pm 23.1 17.8 18.5 75 2.9 N 44 56 24 30 1008.1 1008.1 0.0
24/04:30pm 23.5 18.3 18.4 73 3.2 NNE 43 56 23 30 1008.2 1008.2 0.0
24/04:00pm 24.1 18.6 18.2 69 3.7 NNE 44 57 24 31 1008.2 1008.2 0.0
24/03:30pm 24.3 18.6 18.5 70 3.7 NNE 46 59 25 32 1008.2 1008.2 0.0
24/03:00pm 24.6 18.9 18.6 69 3.8 NNE 46 57 25 31 1008.4 1008.4 0.0
24/02:30pm 24.8 19.7 18.7 69 3.9 NNE 43 57 23 31 1008.7 1008.7 0.0
24/02:00pm 25.4 20.3 18.6 66 4.3 NNE 43 54 23 29 1009.1 1009.1 0.0
24/01:30pm 24.8 20.1 18.7 69 3.9 NNE 41 54 22 29 1009.5 1009.5 0.0
24/01:00pm 25.1 20.8 18.7 67 4.1 NNE 39 52 21 28 1010.1 1010.1 0.0
24/12:30pm 26.0 21.7 18.6 63 4.7 NNE 39 50 21 27 1010.6 1010.6 0.0
24/12:00pm 25.2 21.5 18.4 66 4.3 NNE 35 44 19 24 1011.1 1011.1 0.0
24/11:30am 25.7 22.0 17.4 60 5.2 NNE 33 41 18 22 1011.8 1011.8 0.0
24/11:00am 26.5 22.7 17.2 56 5.8 NNE 33 39 18 21 1012.5 1012.5 0.0
24/10:30am 25.5 22.6 17.0 59 5.3 NNE 28 33 15 18 1013.0 1013.0 0.0
24/10:00am 24.0 21.0 16.7 63 4.5 N 28 33 15 18 1013.5 1013.5 0.0
24/09:30am 23.3 20.4 17.0 67 3.9 NNE 28 35 15 19 1013.7 1013.7 0.0
24/09:00am 23.2 20.4 16.3 65 4.2 N 26 32 14 17 1013.8 1013.8 0.0
24/08:30am 22.9 19.7 15.2 62 4.6 N 26 35 14 19 1013.9 1013.9 0.0
24/08:00am 22.1 19.7 15.4 65 4.0 N 22 28 12 15 1013.8 1013.8 0.0
24/07:30am 21.6 19.3 15.6 68 3.6 N 22 28 12 15 1013.8 1013.8 0.0
24/07:00am 21.0 17.6 15.8 72 3.1 N 28 37 15 20 1013.3 1013.3 0.0
24/06:30am 20.2 17.1 15.7 75 2.7 N 26 32 14 17 1013.1 1013.1 0.0
24/06:00am 19.5 16.9 15.8 79 2.2 N 24 30 13 16 1013.0 1013.0 0.0
24/05:30am 19.4 16.8 15.9 80 2.1 N 24 33 13 18 1012.7 1012.7 0.0
24/05:00am 18.9 16.9 15.5 80 2.0 N 20 30 11 16 1012.6 1012.6 0.0
24/04:30am 18.2 16.2 14.9 81 1.9 N 19 26 10 14 1012.5 1012.5 0.0
24/04:00am 18.9 16.8 15.1 78 2.2 N 20 28 11 15 1012.4 1012.4 0.0
24/03:30am 18.7 17.6 15.3 80 2.0 N 15 20 8 11 1012.2 1012.2 0.0
24/03:00am 17.4 16.1 14.8 85 1.5 N 15 22 8 12 1012.2 1012.2 0.0
24/02:30am 17.1 15.8 14.7 86 1.4 N 15 17 8 9 1012.2 1012.2 0.0
24/02:00am 18.2 17.2 14.6 79 2.1 N 13 15 7 8 1012.5 1012.5 0.0
24/01:30am 19.9 16.6 15.1 74 2.8 N 26 32 14 17 1012.5 1012.5 0.0
24/01:00am 20.2 17.5 15.5 74 2.8 N 24 30 13 16 1012.7 1012.7 0.0
24/12:30am 20.5 17.4 15.6 73 2.9 N 26 33 14 18 1012.9 1012.9 0.0
24/12:00am 20.6 17.9 16.5 77 2.5 N 26 32 14 17 1013.2 1013.2 0.0
 
Date/Time
EST
Temp
°C
App
Temp
°C
Dew
Point
°C
Rel
Hum
%
Delta-T
°C
Wind Press
QNH
hPa
Press
MSL
hPa
Rain since
9am
mm
Dir  Spd
km/h
Gust
km/h
Spd
kts
Gust
kts
23/11:30pm 20.8 17.8 16.9 78 2.4 N 28 33 15 18 1013.3 1013.3 0.0
23/11:00pm 21.0 17.7 16.9 77 2.5 N 30 37 16 20 1013.3 1013.3 0.0
23/10:30pm 21.2 18.0 17.3 78 2.4 N 30 37 16 20 1013.4 1013.4 0.0
23/10:00pm 21.4 19.1 17.5 78 2.4 N 26 33 14 18 1013.7 1013.7 0.0
23/09:30pm 21.3 19.5 17.9 81 2.1 N 24 32 13 17 1013.8 1013.8 0.0
23/09:00pm 21.6 19.4 17.9 79 2.3 N 26 32 14 17 1013.8 1013.8 0.0
23/08:30pm 21.9 20.5 18.0 78 2.4 N 22 30 12 16 1013.7 1013.7 0.0
23/08:00pm 22.0 20.6 18.0 78 2.5 N 22 30 12 16 1013.4 1013.4 0.0
23/07:30pm 21.9 20.8 17.7 77 2.6 N 20 26 11 14 1013.2 1013.2 0.0
23/07:00pm 22.0 20.0 17.5 75 2.8 N 24 32 13 17 1012.9 1012.9 0.0
23/06:30pm 22.0 20.0 17.5 75 2.8 N 24 30 13 16 1012.6 1012.6 0.0
23/06:00pm 22.2 20.6 17.5 74 2.9 N 22 30 12 16 1012.4 1012.4 0.0
23/05:30pm 22.6 20.1 17.2 71 3.3 N 26 33 14 18 1012.4 1012.4 0.0
23/05:00pm 23.1 19.9 17.3 70 3.6 NNE 30 37 16 20 1012.2 1012.2 0.0
23/04:30pm 23.5 20.3 18.1 71 3.4 NNE 32 37 17 20 1012.0 1012.0 0.0
23/04:00pm 24.1 21.0 18.4 70 3.6 NNE 32 41 17 22 1011.8 1011.8 0.0

Other Formats:

Comma delimited format used in spreadsheet applications
http://www.bom.gov.au/fwo/IDQ60801/IDQ60801.94578.axf

JavaScript Object Notation format (JSON) in row-major order
http://www.bom.gov.au/fwo/IDQ60801/IDQ60801.94578.json